createdAt,value
2023-08-11T00:00:22.484Z,16.50
2023-08-11T00:01:56.642Z,16.50
2023-08-11T00:03:30.484Z,16.50
2023-08-11T00:05:03.913Z,16.50
2023-08-11T00:06:38.200Z,16.40
2023-08-11T00:08:10.479Z,16.40
2023-08-11T00:09:43.705Z,16.40
2023-08-11T00:11:15.823Z,16.40
2023-08-11T00:12:49.769Z,16.40
2023-08-11T00:14:21.952Z,16.40
2023-08-11T00:15:56.791Z,16.50
2023-08-11T00:17:29.062Z,16.40
2023-08-11T00:19:03.555Z,16.40
2023-08-11T00:20:35.738Z,16.40
2023-08-11T00:22:10.670Z,16.30
2023-08-11T00:23:45.060Z,16.30
2023-08-11T00:25:17.301Z,16.30
2023-08-11T00:26:50.535Z,16.20
2023-08-11T00:28:23.679Z,16.20
2023-08-11T00:29:57.377Z,16.20
2023-08-11T00:31:30.639Z,16.10
2023-08-11T00:33:02.885Z,16.00
2023-08-11T00:34:37.574Z,16.00
2023-08-11T00:36:10.692Z,15.90
2023-08-11T00:37:43.982Z,15.90
2023-08-11T00:39:16.950Z,15.80
2023-08-11T00:40:50.152Z,15.70
2023-08-11T00:42:22.332Z,15.70
2023-08-11T00:43:55.514Z,15.60
2023-08-11T00:45:28.693Z,15.50
2023-08-11T00:47:01.296Z,15.40
2023-08-11T00:48:36.407Z,15.30
2023-08-11T00:50:12.056Z,15.30
2023-08-11T00:51:45.304Z,15.10
2023-08-11T00:53:17.552Z,15.10
2023-08-11T00:54:50.699Z,15.00
2023-08-11T00:56:24.753Z,14.90
2023-08-11T00:57:56.971Z,14.80
2023-08-11T00:59:30.367Z,14.70
2023-08-11T01:01:02.684Z,14.60
2023-08-11T01:02:35.993Z,14.50
2023-08-11T01:04:08.624Z,14.50
2023-08-11T01:05:46.448Z,14.40
2023-08-11T01:07:24.731Z,14.40
2023-08-11T01:09:06.764Z,14.30
2023-08-11T01:10:57.686Z,14.30
2023-08-11T01:12:37.180Z,14.30
2023-08-11T01:14:18.116Z,14.20
2023-08-11T01:15:57.199Z,14.20
2023-08-11T01:17:31.959Z,14.20
2023-08-11T01:19:06.924Z,14.10
2023-08-11T01:20:42.269Z,14.10
2023-08-11T01:22:18.282Z,14.10
2023-08-11T01:23:54.147Z,14.00
2023-08-11T01:25:27.001Z,14.00
2023-08-11T01:27:00.542Z,13.90
2023-08-11T01:28:37.702Z,13.90
2023-08-11T01:30:11.603Z,13.90
2023-08-11T01:31:45.234Z,13.80
2023-08-11T01:33:17.429Z,13.80
2023-08-11T01:34:51.791Z,13.80
2023-08-11T01:36:24.925Z,13.70
2023-08-11T01:37:57.064Z,13.70
2023-08-11T01:39:32.422Z,13.60
2023-08-11T01:41:05.832Z,13.60
2023-08-11T01:42:46.558Z,13.60
2023-08-11T01:44:25.737Z,13.50
2023-08-11T01:45:59.391Z,13.50
2023-08-11T01:47:33.185Z,13.40
2023-08-11T01:49:05.858Z,13.40
2023-08-11T01:50:40.072Z,13.30
2023-08-11T01:52:13.130Z,13.20
2023-08-11T01:53:46.311Z,13.20
2023-08-11T01:55:19.904Z,13.20
2023-08-11T01:56:53.991Z,13.10
2023-08-11T01:58:28.715Z,13.10
2023-08-11T02:00:01.109Z,13.00
2023-08-11T02:01:34.412Z,13.00
2023-08-11T02:03:08.575Z,13.00
2023-08-11T02:04:41.908Z,13.00
2023-08-11T02:06:14.066Z,13.00
2023-08-11T02:07:47.789Z,13.00
2023-08-11T02:09:21.488Z,12.90
2023-08-11T02:10:55.050Z,12.90
2023-08-11T02:12:28.449Z,12.90
2023-08-11T02:14:01.579Z,12.90
2023-08-11T02:15:34.722Z,12.80
2023-08-11T02:17:08.782Z,12.80
2023-08-11T02:18:42.269Z,12.80
2023-08-11T02:20:19.439Z,12.80
2023-08-11T02:21:52.784Z,12.80
2023-08-11T02:23:24.988Z,12.90
2023-08-11T02:24:58.242Z,12.90
2023-08-11T02:26:31.937Z,13.00
2023-08-11T02:28:05.919Z,13.00
2023-08-11T02:29:38.380Z,13.10
2023-08-11T02:31:12.058Z,13.20
2023-08-11T02:32:47.125Z,13.10
2023-08-11T02:34:23.014Z,13.10
2023-08-11T02:35:56.220Z,13.20
2023-08-11T02:37:28.339Z,13.30
2023-08-11T02:39:01.452Z,13.50
2023-08-11T02:40:33.798Z,13.40
2023-08-11T02:42:08.488Z,13.40
2023-08-11T02:43:41.824Z,13.40
2023-08-11T02:45:14.095Z,13.60
2023-08-11T02:46:48.107Z,13.60
2023-08-11T02:48:20.930Z,13.60
2023-08-11T02:49:54.120Z,13.50
2023-08-11T02:51:26.327Z,13.60
2023-08-11T02:52:59.562Z,13.70
2023-08-11T02:54:32.180Z,13.80
2023-08-11T02:56:07.822Z,13.90
2023-08-11T02:57:41.642Z,13.90
2023-08-11T02:59:15.158Z,13.90
2023-08-11T03:00:48.908Z,14.00
2023-08-11T03:02:22.183Z,14.00
2023-08-11T03:03:55.509Z,14.10
2023-08-11T03:05:27.939Z,14.10
2023-08-11T03:07:01.762Z,14.10
2023-08-11T03:08:33.966Z,14.20
2023-08-11T03:10:08.659Z,14.20
2023-08-11T03:11:41.497Z,14.20
2023-08-11T03:13:16.103Z,14.10
2023-08-11T03:14:48.303Z,14.10
2023-08-11T03:16:21.431Z,14.10
2023-08-11T03:17:55.884Z,14.10
2023-08-11T03:19:28.154Z,14.10
2023-08-11T03:21:14.148Z,14.00
2023-08-11T03:22:51.997Z,14.00
2023-08-11T03:24:27.983Z,13.90
2023-08-11T03:26:01.144Z,13.80
2023-08-11T03:27:36.431Z,13.80
2023-08-11T03:29:11.341Z,13.80
2023-08-11T03:30:43.783Z,13.70
2023-08-11T03:32:16.951Z,13.70
2023-08-11T03:33:49.478Z,13.60
2023-08-11T03:35:23.280Z,13.60
2023-08-11T03:36:58.177Z,13.60
2023-08-11T03:38:30.362Z,13.60
2023-08-11T03:40:05.409Z,13.60
2023-08-11T03:41:37.655Z,13.70
2023-08-11T03:43:10.909Z,13.60
2023-08-11T03:44:45.139Z,13.70
2023-08-11T03:46:18.581Z,13.60
2023-08-11T03:47:51.086Z,13.70
2023-08-11T03:49:29.640Z,13.70
2023-08-11T03:51:02.584Z,13.70
2023-08-11T03:52:36.649Z,13.70
2023-08-11T03:54:08.870Z,13.60
2023-08-11T03:55:46.931Z,13.60
2023-08-11T03:57:20.319Z,13.60
2023-08-11T03:58:53.453Z,13.60
2023-08-11T04:00:28.829Z,13.60
2023-08-11T04:02:12.426Z,13.70
2023-08-11T04:03:44.985Z,13.70
2023-08-11T04:05:18.693Z,13.70
2023-08-11T04:06:53.159Z,13.70
2023-08-11T04:08:27.308Z,13.70
2023-08-11T04:09:59.766Z,13.70
2023-08-11T04:11:34.035Z,13.80
2023-08-11T04:13:06.357Z,13.80
2023-08-11T04:14:39.479Z,13.90
2023-08-11T04:16:14.392Z,13.90
2023-08-11T04:17:47.130Z,14.00
2023-08-11T04:19:20.421Z,14.00
2023-08-11T04:20:53.602Z,14.00
2023-08-11T04:22:38.048Z,14.00
2023-08-11T04:24:12.515Z,14.00
2023-08-11T04:25:45.059Z,14.00
2023-08-11T04:27:18.521Z,14.10
2023-08-11T04:28:53.179Z,14.10
2023-08-11T04:30:26.339Z,14.20
2023-08-11T04:32:05.606Z,14.30
2023-08-11T04:33:40.818Z,14.50
2023-08-11T04:35:13.174Z,14.50
2023-08-11T04:36:47.595Z,14.60
2023-08-11T04:38:21.187Z,14.70
2023-08-11T04:39:54.482Z,14.80
2023-08-11T04:41:27.640Z,14.90
2023-08-11T04:43:00.983Z,15.10
2023-08-11T04:44:40.245Z,15.10
2023-08-11T04:46:12.533Z,15.30
2023-08-11T04:47:47.122Z,15.40
2023-08-11T04:49:23.790Z,15.50
2023-08-11T04:50:57.896Z,15.60
2023-08-11T04:52:30.200Z,15.70
2023-08-11T04:54:04.297Z,15.70
2023-08-11T04:55:40.996Z,15.80
2023-08-11T04:57:14.660Z,15.90
2023-08-11T04:58:46.884Z,16.00
2023-08-11T05:00:20.755Z,16.10
2023-08-11T05:01:55.683Z,16.10
2023-08-11T05:03:30.686Z,16.10
2023-08-11T05:05:04.547Z,16.10
2023-08-11T05:06:37.928Z,16.10
2023-08-11T05:08:14.656Z,16.10
2023-08-11T05:09:47.796Z,16.10
2023-08-11T05:11:20.933Z,16.10
2023-08-11T05:12:53.257Z,16.10
2023-08-11T05:14:26.489Z,16.20
2023-08-11T05:15:58.684Z,16.30
2023-08-11T05:17:32.168Z,16.40
2023-08-11T05:19:05.945Z,16.40
2023-08-11T05:20:39.116Z,16.40
2023-08-11T05:22:12.503Z,16.30
2023-08-11T05:23:45.717Z,16.30
2023-08-11T05:25:17.971Z,16.40
2023-08-11T05:26:51.177Z,16.30
2023-08-11T05:28:23.351Z,16.30
2023-08-11T05:29:57.370Z,16.30
2023-08-11T05:31:29.599Z,16.40
2023-08-11T05:33:02.791Z,16.40
2023-08-11T05:34:36.729Z,16.50
2023-08-11T05:36:09.962Z,16.70
2023-08-11T05:37:42.415Z,16.70
2023-08-11T05:39:16.006Z,16.90
2023-08-11T05:40:49.444Z,17.00
2023-08-11T05:42:21.805Z,17.10
2023-08-11T05:43:55.212Z,17.20
2023-08-11T05:45:27.369Z,17.20
2023-08-11T05:47:00.751Z,17.40
2023-08-11T05:48:33.909Z,17.40
2023-08-11T05:50:09.957Z,17.50
2023-08-11T05:51:42.114Z,17.50
2023-08-11T05:53:15.346Z,17.60
2023-08-11T05:54:47.520Z,17.60
2023-08-11T05:56:20.639Z,17.70
2023-08-11T05:57:52.826Z,17.70
2023-08-11T05:59:26.419Z,17.70
2023-08-11T06:00:58.684Z,17.70
2023-08-11T06:02:31.963Z,17.70
2023-08-11T06:04:05.099Z,17.50
2023-08-11T06:05:39.958Z,17.50
2023-08-11T06:07:12.316Z,17.60
2023-08-11T06:08:46.943Z,17.70
2023-08-11T06:10:19.076Z,17.80
2023-08-11T06:11:52.245Z,17.70
2023-08-11T06:13:24.393Z,17.80
2023-08-11T06:14:57.561Z,17.90
2023-08-11T06:16:29.797Z,17.90
2023-08-11T06:18:03.006Z,18.00
2023-08-11T06:19:35.228Z,18.10
2023-08-11T06:21:10.675Z,18.20
2023-08-11T06:22:42.794Z,18.30
2023-08-11T06:24:15.963Z,18.30
2023-08-11T06:25:48.211Z,18.30
2023-08-11T06:27:21.371Z,18.40
2023-08-11T06:28:53.953Z,18.60
2023-08-11T06:30:29.134Z,18.70
2023-08-11T06:32:01.478Z,19.00
2023-08-11T06:33:34.835Z,19.10
2023-08-11T06:35:09.351Z,19.10
2023-08-11T06:36:43.413Z,19.10
2023-08-11T06:38:16.662Z,19.30
2023-08-11T06:39:49.948Z,19.50
2023-08-11T06:41:22.089Z,19.60
2023-08-11T06:42:55.280Z,19.70
2023-08-11T06:44:28.263Z,19.50
2023-08-11T06:46:01.677Z,19.50
2023-08-11T06:47:35.591Z,19.70
2023-08-11T06:49:08.754Z,19.80
2023-08-11T06:50:40.933Z,19.80
2023-08-11T06:52:15.505Z,19.70
2023-08-11T06:53:47.690Z,20.00
2023-08-11T06:55:20.847Z,20.20
2023-08-11T06:56:53.054Z,20.30
2023-08-11T06:58:26.687Z,20.30
2023-08-11T07:00:00.206Z,20.50
2023-08-11T07:01:32.454Z,20.50
2023-08-11T07:03:06.399Z,20.30
2023-08-11T07:04:40.724Z,20.30
2023-08-11T07:06:13.915Z,20.50
2023-08-11T07:07:47.510Z,20.50
2023-08-11T07:09:20.635Z,20.50
2023-08-11T07:10:52.769Z,20.80
2023-08-11T07:12:26.021Z,21.00
2023-08-11T07:13:58.361Z,21.10
2023-08-11T07:15:31.518Z,21.10
2023-08-11T07:17:04.582Z,21.40
2023-08-11T07:18:37.875Z,21.80
2023-08-11T07:20:10.403Z,22.00
2023-08-11T07:21:43.730Z,22.10
2023-08-11T07:23:17.367Z,22.20
2023-08-11T07:24:50.539Z,22.50
2023-08-11T07:26:23.702Z,22.50
2023-08-11T07:27:56.304Z,23.20
2023-08-11T07:29:29.752Z,24.20
2023-08-11T07:31:02.152Z,23.70
2023-08-11T07:32:35.252Z,23.40
2023-08-11T07:34:08.481Z,24.30
2023-08-11T07:35:40.592Z,24.40
2023-08-11T07:37:13.776Z,23.50
2023-08-11T07:38:48.418Z,23.20
2023-08-11T07:40:20.964Z,24.60
2023-08-11T07:41:54.163Z,24.60
2023-08-11T07:43:26.317Z,23.80
2023-08-11T07:44:59.436Z,24.40
2023-08-11T07:46:31.810Z,24.60
2023-08-11T07:48:05.557Z,24.20
2023-08-11T07:49:37.815Z,24.70
2023-08-11T07:51:11.291Z,25.00
2023-08-11T07:52:43.465Z,25.80
2023-08-11T07:54:18.767Z,26.70
2023-08-11T07:55:51.987Z,27.90
2023-08-11T07:57:25.072Z,28.50
2023-08-11T07:58:58.210Z,29.40
2023-08-11T08:00:30.752Z,29.60
2023-08-11T08:02:05.103Z,30.00
2023-08-11T08:03:38.461Z,30.00
2023-08-11T08:05:13.138Z,30.00
2023-08-11T08:06:47.289Z,29.80
2023-08-11T08:08:19.462Z,29.40
2023-08-11T08:09:53.974Z,29.30
2023-08-11T08:11:27.214Z,29.60
2023-08-11T08:13:00.306Z,29.40
2023-08-11T08:14:32.458Z,29.10
2023-08-11T08:16:05.799Z,28.90
2023-08-11T08:17:38.827Z,28.90
2023-08-11T08:19:12.614Z,28.70
2023-08-11T08:20:44.816Z,26.70
2023-08-11T08:22:18.335Z,25.70
2023-08-11T08:23:51.694Z,25.40
2023-08-11T08:25:26.284Z,25.00
2023-08-11T08:26:58.467Z,25.20
2023-08-11T08:28:34.340Z,25.80
2023-08-11T08:30:10.547Z,26.00
2023-08-11T08:31:42.851Z,24.70
2023-08-11T08:33:16.175Z,24.40
2023-08-11T08:34:49.384Z,25.20
2023-08-11T08:36:22.505Z,26.10
2023-08-11T08:37:54.649Z,26.90
2023-08-11T08:39:27.837Z,26.00
2023-08-11T08:41:02.515Z,26.00
2023-08-11T08:42:35.278Z,26.20
2023-08-11T08:44:08.602Z,26.60
2023-08-11T08:45:44.802Z,25.40
2023-08-11T08:47:19.183Z,24.80
2023-08-11T08:48:57.969Z,25.80
2023-08-11T08:50:31.304Z,26.20
2023-08-11T08:52:05.971Z,26.50
2023-08-11T08:53:39.630Z,26.70
2023-08-11T08:55:13.811Z,26.60
2023-08-11T08:56:47.534Z,27.80
2023-08-11T08:58:20.721Z,28.40
2023-08-11T08:59:53.265Z,28.60
2023-08-11T09:01:27.528Z,28.90
2023-08-11T09:03:01.362Z,28.80
2023-08-11T09:04:35.155Z,28.60
2023-08-11T09:06:08.836Z,26.80
2023-08-11T09:07:41.042Z,26.20
2023-08-11T09:09:14.889Z,27.00
2023-08-11T09:10:47.073Z,27.90
2023-08-11T09:12:21.610Z,28.60
2023-08-11T09:13:54.064Z,29.00
2023-08-11T09:15:27.414Z,29.30
2023-08-11T09:17:02.214Z,29.10
2023-08-11T09:18:34.524Z,29.30
2023-08-11T09:20:11.220Z,29.30
2023-08-11T09:21:44.373Z,29.30
2023-08-11T09:23:18.834Z,29.30
2023-08-11T09:24:51.998Z,29.70
2023-08-11T09:26:25.555Z,30.00
2023-08-11T09:28:00.641Z,30.10
2023-08-11T09:29:35.511Z,30.30
2023-08-11T09:31:08.774Z,29.80
2023-08-11T09:32:41.170Z,29.60
2023-08-11T09:34:16.296Z,29.80
2023-08-11T09:35:49.783Z,28.80
2023-08-11T09:37:22.110Z,29.20
2023-08-11T09:38:55.930Z,28.70
2023-08-11T09:40:29.251Z,27.10
2023-08-11T09:42:02.758Z,27.60
2023-08-11T09:43:36.632Z,28.70
2023-08-11T09:45:10.975Z,28.20
2023-08-11T09:46:44.168Z,27.90
2023-08-11T09:48:17.414Z,27.60
2023-08-11T09:49:49.752Z,28.50
2023-08-11T09:51:23.384Z,29.30
2023-08-11T09:52:59.917Z,30.20
2023-08-11T09:54:32.882Z,30.90
2023-08-11T09:56:06.602Z,31.30
2023-08-11T09:57:40.311Z,31.10
2023-08-11T09:59:18.312Z,31.10
2023-08-11T10:00:57.016Z,31.20
2023-08-11T10:02:34.764Z,31.50
2023-08-11T10:04:11.824Z,31.90
2023-08-11T10:05:46.631Z,32.20
2023-08-11T10:07:20.990Z,32.10
2023-08-11T10:08:55.240Z,31.30
2023-08-11T10:10:29.318Z,29.30
2023-08-11T10:12:01.853Z,28.80
2023-08-11T10:13:35.869Z,28.10
2023-08-11T10:15:11.770Z,28.60
2023-08-11T10:16:46.650Z,29.00
2023-08-11T10:18:19.529Z,29.30
2023-08-11T10:19:53.370Z,28.40
2023-08-11T10:21:26.644Z,28.50
2023-08-11T10:23:00.309Z,28.40
2023-08-11T10:24:34.122Z,29.40
2023-08-11T10:26:08.047Z,29.40
2023-08-11T10:27:40.859Z,29.20
2023-08-11T10:29:14.159Z,28.40
2023-08-11T10:30:55.758Z,28.90
2023-08-11T10:32:33.702Z,28.80
2023-08-11T10:34:10.888Z,29.80
2023-08-11T10:35:50.573Z,28.30
2023-08-11T10:37:25.946Z,28.00
2023-08-11T10:39:03.011Z,28.40
2023-08-11T10:40:37.192Z,29.00
2023-08-11T10:42:12.810Z,27.70
2023-08-11T10:43:50.072Z,28.10
2023-08-11T10:45:26.659Z,29.10
2023-08-11T10:47:06.087Z,29.90
2023-08-11T10:48:38.281Z,29.80
2023-08-11T10:50:11.737Z,28.90
2023-08-11T10:51:45.572Z,28.30
2023-08-11T10:53:21.703Z,27.60
2023-08-11T10:54:55.290Z,27.60
2023-08-11T10:56:33.244Z,29.00
2023-08-11T10:58:19.246Z,28.30
2023-08-11T10:59:52.645Z,29.40
2023-08-11T11:01:25.039Z,29.90
2023-08-11T11:02:59.916Z,31.00
2023-08-11T11:04:34.690Z,31.60
2023-08-11T11:06:07.576Z,31.70
2023-08-11T11:07:40.683Z,32.10
2023-08-11T11:09:13.363Z,32.10
2023-08-11T11:10:50.553Z,31.80
2023-08-11T11:12:24.214Z,32.30
2023-08-11T11:13:56.300Z,32.50
2023-08-11T11:15:31.087Z,33.00
2023-08-11T11:17:04.663Z,33.50
2023-08-11T11:18:41.037Z,33.20
2023-08-11T11:20:15.620Z,31.50
2023-08-11T11:21:48.924Z,32.30
2023-08-11T11:23:21.146Z,31.70
2023-08-11T11:24:54.292Z,30.90
2023-08-11T11:26:27.964Z,31.20
2023-08-11T11:28:01.169Z,31.80
2023-08-11T11:29:33.941Z,32.00
2023-08-11T11:31:07.639Z,32.10
2023-08-11T11:32:41.651Z,31.70
2023-08-11T11:34:15.961Z,31.60
2023-08-11T11:35:49.342Z,31.70
2023-08-11T11:37:22.738Z,31.60
2023-08-11T11:38:55.294Z,31.90
2023-08-11T11:40:30.980Z,32.50
2023-08-11T11:42:08.088Z,32.50
2023-08-11T11:43:41.921Z,32.70
2023-08-11T11:45:15.984Z,32.90
2023-08-11T11:46:48.531Z,32.80
2023-08-11T11:48:22.582Z,32.50
2023-08-11T11:50:01.337Z,32.40
2023-08-11T11:51:34.861Z,32.10
2023-08-11T11:53:07.292Z,32.50
2023-08-11T11:54:40.920Z,32.80
2023-08-11T11:56:15.246Z,31.90
2023-08-11T11:57:48.883Z,32.50
2023-08-11T11:59:22.415Z,32.60
2023-08-11T12:00:56.961Z,32.80
2023-08-11T12:02:30.333Z,32.80
2023-08-11T12:04:05.023Z,32.90
2023-08-11T12:05:39.736Z,32.70
2023-08-11T12:07:29.860Z,31.70
2023-08-11T12:09:05.409Z,31.40
2023-08-11T12:10:37.699Z,30.30
2023-08-11T12:12:11.195Z,29.60
2023-08-11T12:13:47.696Z,29.70
2023-08-11T12:15:21.927Z,30.50
2023-08-11T12:16:54.186Z,31.10
2023-08-11T12:18:30.557Z,31.30
2023-08-11T12:20:05.024Z,31.10
2023-08-11T12:21:39.561Z,31.90
2023-08-11T12:23:11.871Z,32.40
2023-08-11T12:24:45.322Z,32.80
2023-08-11T12:26:18.498Z,32.50
2023-08-11T12:27:55.112Z,32.90
2023-08-11T12:29:28.306Z,32.50
2023-08-11T12:31:00.493Z,30.30
2023-08-11T12:32:33.709Z,30.80
2023-08-11T12:34:07.555Z,30.80
2023-08-11T12:35:39.730Z,30.90
2023-08-11T12:37:15.424Z,31.50
2023-08-11T12:38:48.932Z,32.10
2023-08-11T12:40:23.274Z,32.50
2023-08-11T12:41:56.442Z,32.70
2023-08-11T12:43:29.582Z,32.50
2023-08-11T12:45:01.777Z,32.40
2023-08-11T12:46:34.960Z,32.30
2023-08-11T12:48:08.010Z,32.50
2023-08-11T12:49:41.172Z,32.60
2023-08-11T12:51:14.339Z,32.80
2023-08-11T12:52:47.805Z,32.90
2023-08-11T12:54:21.098Z,32.50
2023-08-11T12:55:53.240Z,32.20
2023-08-11T12:57:26.465Z,31.80
2023-08-11T12:58:58.622Z,31.50
2023-08-11T13:00:32.590Z,31.70
2023-08-11T13:02:05.034Z,31.80
2023-08-11T13:03:38.274Z,31.80
2023-08-11T13:05:10.457Z,31.80
2023-08-11T13:06:43.605Z,31.90
2023-08-11T13:08:18.157Z,31.90
2023-08-11T13:09:50.319Z,32.00
2023-08-11T13:11:24.037Z,32.10
2023-08-11T13:12:57.266Z,32.10
2023-08-11T13:14:29.388Z,32.20
2023-08-11T13:16:02.659Z,32.30
2023-08-11T13:17:35.054Z,32.30
2023-08-11T13:19:08.196Z,32.10
2023-08-11T13:20:40.374Z,32.10
2023-08-11T13:22:13.566Z,32.40
2023-08-11T13:23:47.152Z,32.10
2023-08-11T13:25:20.437Z,31.40
2023-08-11T13:26:53.208Z,30.80
2023-08-11T13:28:26.327Z,30.90
2023-08-11T13:29:58.543Z,31.00
2023-08-11T13:31:31.971Z,30.90
2023-08-11T13:33:06.161Z,31.60
2023-08-11T13:34:39.363Z,31.30
2023-08-11T13:36:11.476Z,31.30
2023-08-11T13:37:44.682Z,31.30
2023-08-11T13:39:19.411Z,31.40
2023-08-11T13:40:52.563Z,31.70
2023-08-11T13:42:25.064Z,32.00
2023-08-11T13:43:58.184Z,32.40
2023-08-11T13:45:31.415Z,32.40
2023-08-11T13:47:04.832Z,32.70
2023-08-11T13:48:37.287Z,32.50
2023-08-11T13:50:11.281Z,32.40
2023-08-11T13:51:43.529Z,32.30
2023-08-11T13:53:16.663Z,32.50
2023-08-11T13:54:58.626Z,32.70
2023-08-11T13:56:34.567Z,32.40
2023-08-11T13:58:06.781Z,32.00
2023-08-11T13:59:39.909Z,32.10
2023-08-11T14:01:12.114Z,32.00
2023-08-11T14:02:45.468Z,31.70
2023-08-11T14:04:19.502Z,30.80
2023-08-11T14:05:51.720Z,29.90
2023-08-11T14:07:30.499Z,30.60
2023-08-11T14:09:07.083Z,30.80
2023-08-11T14:10:40.629Z,30.90
2023-08-11T14:12:15.376Z,31.00
2023-08-11T14:13:47.513Z,31.00
2023-08-11T14:15:20.681Z,31.10
2023-08-11T14:16:53.799Z,31.00
2023-08-11T14:18:25.986Z,31.20
2023-08-11T14:20:04.376Z,31.50
2023-08-11T14:21:36.527Z,31.30
2023-08-11T14:23:09.965Z,31.20
2023-08-11T14:24:42.109Z,31.20
2023-08-11T14:26:16.578Z,31.30
2023-08-11T14:27:49.908Z,31.40
2023-08-11T14:29:23.063Z,31.50
2023-08-11T14:30:56.012Z,31.00
2023-08-11T14:32:29.470Z,30.50
2023-08-11T14:34:04.175Z,29.50
2023-08-11T14:35:40.598Z,28.60
2023-08-11T14:37:15.884Z,28.20
2023-08-11T14:38:50.429Z,28.30
2023-08-11T14:40:22.841Z,27.90
2023-08-11T14:41:57.363Z,27.90
2023-08-11T14:43:30.896Z,28.10
2023-08-11T14:45:04.381Z,28.40
2023-08-11T14:46:37.566Z,28.60
2023-08-11T14:48:09.681Z,28.30
2023-08-11T14:49:43.053Z,27.90
2023-08-11T14:51:16.231Z,27.80
2023-08-11T14:52:48.396Z,27.70
2023-08-11T14:54:21.672Z,27.80
2023-08-11T14:55:53.813Z,27.90
2023-08-11T14:57:28.423Z,27.70
2023-08-11T14:59:01.722Z,27.60
2023-08-11T15:00:33.969Z,27.50
2023-08-11T15:02:07.500Z,27.20
2023-08-11T15:03:42.496Z,27.40
2023-08-11T15:05:14.774Z,27.70
2023-08-11T15:06:48.084Z,28.00
2023-08-11T15:08:21.227Z,28.10
2023-08-11T15:09:53.389Z,28.10
2023-08-11T15:11:26.977Z,28.00
2023-08-11T15:13:01.145Z,27.80
2023-08-11T15:14:34.352Z,27.70
2023-08-11T15:16:06.548Z,27.70
2023-08-11T15:17:39.774Z,27.70
2023-08-11T15:19:11.988Z,27.50
2023-08-11T15:20:45.135Z,27.20
2023-08-11T15:22:17.496Z,27.20
2023-08-11T15:23:50.647Z,27.10
2023-08-11T15:25:23.900Z,27.00
2023-08-11T15:26:56.052Z,27.20
2023-08-11T15:28:30.710Z,27.20
2023-08-11T15:30:02.995Z,27.20
2023-08-11T15:31:36.410Z,27.30
2023-08-11T15:33:08.640Z,27.30
2023-08-11T15:34:42.156Z,27.40
2023-08-11T15:36:14.442Z,27.50
2023-08-11T15:37:47.588Z,27.50
2023-08-11T15:39:19.793Z,27.50
2023-08-11T15:40:52.894Z,27.30
2023-08-11T15:42:25.235Z,27.20
2023-08-11T15:43:59.799Z,27.20
2023-08-11T15:45:31.989Z,27.30
2023-08-11T15:47:05.234Z,27.20
2023-08-11T15:48:37.747Z,27.20
2023-08-11T15:50:11.449Z,27.20
2023-08-11T15:51:43.610Z,27.20
2023-08-11T15:53:16.689Z,27.20
2023-08-11T15:54:48.807Z,27.40
2023-08-11T15:56:22.036Z,27.50
2023-08-11T15:57:54.130Z,27.50
2023-08-11T15:59:28.628Z,27.50
2023-08-11T16:01:03.614Z,27.30
2023-08-11T16:02:37.208Z,27.20
2023-08-11T16:04:09.846Z,27.20
2023-08-11T16:05:43.179Z,27.00
2023-08-11T16:07:15.355Z,27.00
2023-08-11T16:08:48.522Z,27.00
2023-08-11T16:10:20.647Z,26.90
2023-08-11T16:11:55.219Z,26.70
2023-08-11T16:13:27.347Z,26.70
2023-08-11T16:15:01.837Z,26.70
2023-08-11T16:16:34.033Z,26.70
2023-08-11T16:18:09.027Z,26.70
2023-08-11T16:19:42.259Z,26.50
2023-08-11T16:21:14.711Z,26.50
2023-08-11T16:22:47.811Z,26.50
2023-08-11T16:24:20.298Z,26.50
2023-08-11T16:25:53.388Z,26.50
2023-08-11T16:27:28.469Z,26.40
2023-08-11T16:29:01.886Z,26.50
2023-08-11T16:30:35.467Z,26.50
2023-08-11T16:32:09.201Z,26.40
2023-08-11T16:33:41.714Z,26.50
2023-08-11T16:35:14.846Z,26.50
2023-08-11T16:36:46.979Z,26.50
2023-08-11T16:38:20.070Z,26.50
2023-08-11T16:39:53.181Z,26.50
2023-08-11T16:41:26.324Z,26.50
2023-08-11T16:42:59.037Z,26.50
2023-08-11T16:44:32.169Z,26.40
2023-08-11T16:46:05.722Z,26.40
2023-08-11T16:47:38.932Z,26.40
2023-08-11T16:49:12.102Z,26.40
2023-08-11T16:50:45.886Z,26.40
2023-08-11T16:52:18.997Z,26.40
2023-08-11T16:53:52.117Z,26.40
2023-08-11T16:55:24.550Z,26.40
2023-08-11T16:56:58.942Z,26.30
2023-08-11T16:58:31.193Z,26.30
2023-08-11T17:00:06.094Z,26.20
2023-08-11T17:01:39.701Z,26.20
2023-08-11T17:03:13.132Z,26.10
2023-08-11T17:04:45.465Z,26.10
2023-08-11T17:06:20.438Z,26.00
2023-08-11T17:07:52.754Z,25.90
2023-08-11T17:09:25.908Z,25.90
2023-08-11T17:10:59.397Z,25.90
2023-08-11T17:12:31.980Z,25.90
2023-08-11T17:14:05.306Z,25.80
2023-08-11T17:15:37.583Z,25.80
2023-08-11T17:17:12.166Z,25.80
2023-08-11T17:18:44.578Z,25.70
2023-08-11T17:20:18.063Z,25.70
2023-08-11T17:21:51.624Z,25.60
2023-08-11T17:23:23.766Z,25.50
2023-08-11T17:24:58.910Z,25.30
2023-08-11T17:26:32.317Z,25.30
2023-08-11T17:28:05.219Z,25.30
2023-08-11T17:29:38.409Z,25.20
2023-08-11T17:31:11.565Z,25.00
2023-08-11T17:32:45.178Z,24.90
2023-08-11T17:34:18.282Z,24.60
2023-08-11T17:35:50.952Z,24.50
2023-08-11T17:37:24.249Z,24.30
2023-08-11T17:38:57.822Z,24.20
2023-08-11T17:40:30.972Z,24.10
2023-08-11T17:42:03.935Z,24.00
2023-08-11T17:43:37.060Z,23.70
2023-08-11T17:45:10.177Z,23.60
2023-08-11T17:46:43.443Z,23.40
2023-08-11T17:48:17.034Z,23.20
2023-08-11T17:49:50.773Z,23.10
2023-08-11T17:51:23.958Z,22.90
2023-08-11T17:52:57.190Z,22.80
2023-08-11T17:54:30.382Z,22.70
2023-08-11T17:56:03.087Z,22.60
2023-08-11T17:57:36.884Z,22.50
2023-08-11T17:59:09.074Z,22.30
2023-08-11T18:00:43.617Z,22.20
2023-08-11T18:02:16.750Z,22.00
2023-08-11T18:03:50.510Z,22.00
2023-08-11T18:05:23.610Z,21.90
2023-08-11T18:06:56.750Z,21.80
2023-08-11T18:08:29.851Z,21.80
2023-08-11T18:10:03.406Z,21.70
2023-08-11T18:11:36.220Z,21.60
2023-08-11T18:13:09.459Z,21.60
2023-08-11T18:14:53.631Z,21.50
2023-08-11T18:18:22.215Z,21.30
2023-08-11T18:19:56.373Z,21.20
2023-08-11T18:21:29.524Z,21.10
2023-08-11T18:23:02.071Z,21.00
2023-08-11T18:24:35.210Z,20.80
2023-08-11T18:26:07.339Z,20.70
2023-08-11T18:27:41.529Z,20.60
2023-08-11T18:29:15.715Z,20.50
2023-08-11T18:30:49.445Z,20.40
2023-08-11T18:32:22.722Z,20.30
2023-08-11T18:33:55.852Z,20.20
2023-08-11T18:35:29.572Z,20.20
2023-08-11T18:37:02.679Z,20.20
2023-08-11T18:38:35.071Z,20.20
2023-08-11T18:40:09.844Z,20.00
2023-08-11T18:41:42.004Z,20.00
2023-08-11T18:43:15.190Z,20.00
2023-08-11T18:44:47.349Z,20.00
2023-08-11T18:46:20.500Z,20.00
2023-08-11T18:47:54.449Z,19.90
2023-08-11T18:49:28.354Z,19.90
2023-08-11T18:51:02.498Z,19.90
2023-08-11T18:52:35.796Z,19.90
2023-08-11T18:54:08.496Z,19.90
2023-08-11T18:55:41.710Z,19.80
2023-08-11T18:57:13.926Z,19.80
2023-08-11T18:58:47.661Z,19.80
2023-08-11T19:00:19.790Z,19.70
2023-08-11T19:01:52.929Z,19.70
2023-08-11T19:03:25.157Z,19.60
2023-08-11T19:04:58.344Z,19.60
2023-08-11T19:06:32.931Z,19.50
2023-08-11T19:08:08.046Z,19.50
2023-08-11T19:09:42.941Z,19.40
2023-08-11T19:11:17.420Z,19.40
2023-08-11T19:12:50.821Z,19.30
2023-08-11T19:14:23.928Z,19.20
2023-08-11T19:15:56.603Z,19.20
2023-08-11T19:17:29.844Z,19.10
2023-08-11T19:19:02.028Z,19.10
2023-08-11T19:20:35.283Z,19.00
2023-08-11T19:22:09.062Z,19.00
2023-08-11T19:23:43.788Z,19.00
2023-08-11T19:25:17.089Z,19.00
2023-08-11T19:26:49.366Z,19.00
2023-08-11T19:28:22.488Z,19.00
2023-08-11T19:29:54.727Z,19.00
2023-08-11T19:31:27.951Z,19.00
2023-08-11T19:33:00.269Z,19.00
2023-08-11T19:34:33.441Z,19.00
2023-08-11T19:36:05.984Z,19.00
2023-08-11T19:37:40.490Z,19.00
2023-08-11T19:39:12.629Z,19.00
2023-08-11T19:40:45.963Z,19.00
2023-08-11T19:42:18.390Z,18.90
2023-08-11T19:43:51.531Z,18.80
2023-08-11T19:45:23.688Z,18.70
2023-08-11T19:46:56.989Z,18.50
2023-08-11T19:48:29.391Z,18.50
2023-08-11T19:50:02.470Z,18.40
2023-08-11T19:51:34.732Z,18.30
2023-08-11T19:53:09.204Z,18.20
2023-08-11T19:54:42.594Z,18.20
2023-08-11T19:56:14.745Z,18.20
2023-08-11T19:57:47.902Z,18.20
2023-08-11T19:59:19.989Z,18.10
2023-08-11T20:00:53.438Z,18.20
2023-08-11T20:02:27.156Z,18.20
2023-08-11T20:04:00.275Z,18.20
2023-08-11T20:05:32.399Z,18.30
2023-08-11T20:07:05.955Z,18.30
2023-08-11T20:08:39.482Z,18.30